Time;durP1;ratioP1;P1;durP2;ratioP2;P2;SDS_P1;SDS_P2;PMS_P1;PMS_P2;Temp;Humidity;BMP_temperature;BMP_pressure;BME280_temperature;BME280_humidity;BME280_pressure;Samples;Min_cycle;Max_cycle;Signal;HPM_P1;HPM_P2
2024/01/25 00:00:28;;;;;;;38.03;6.78;;;;;;;;;;5033569;28;20123;-71
2024/01/25 00:03:13;;;;;;;29.27;5.85;;;;;;;;;;5044728;28;20070;-71
2024/01/25 00:06:00;;;;;;;39.55;7.82;;;;;;;;;;5053110;28;20029;-71
2024/01/25 00:08:45;;;;;;;31.05;6.30;;;;;;;;;;5044852;28;20026;-71
2024/01/25 00:11:31;;;;;;;49.00;5.85;;;;;;;;;;5033968;28;20122;-71
2024/01/25 00:14:17;;;;;;;46.47;7.35;;;;;;;;;;5044405;28;20112;-71
2024/01/25 00:17:03;;;;;;;35.58;5.03;;;;;;;;;;5053313;28;20029;-71
2024/01/25 00:19:48;;;;;;;29.13;5.97;;;;;;;;;;5053811;28;20029;-71
2024/01/25 00:22:34;;;;;;;31.95;4.47;;;;;;;;;;5053735;28;20025;-71
2024/01/25 00:25:20;;;;;;;30.58;5.05;;;;;;;;;;5052939;28;20025;-71
2024/01/25 00:28:06;;;;;;;28.60;4.60;;;;;;;;;;5053812;28;20021;-71
2024/01/25 00:30:51;;;;;;;38.33;6.45;;;;;;;;;;5054532;28;20514;-71
2024/01/25 00:33:37;;;;;;;30.65;5.15;;;;;;;;;;5053165;28;20025;-71
2024/01/25 00:36:23;;;;;;;34.55;6.10;;;;;;;;;;5054175;28;20056;-71
2024/01/25 00:39:09;;;;;;;23.63;5.68;;;;;;;;;;5052823;28;20449;-71
2024/01/25 00:42:01;;;;;;;38.42;5.70;;;;;;;;;;5052285;28;20032;-71
2024/01/25 00:44:47;;;;;;;53.35;8.63;;;;;;;;;;5052149;28;20098;-70
2024/01/25 00:47:33;;;;;;;34.00;7.13;;;;;;;;;;5052323;28;20032;-71
2024/01/25 00:50:20;;;;;;;32.58;5.53;;;;;;;;;;5051993;28;20017;-71
2024/01/25 00:53:06;;;;;;;36.25;4.78;;;;;;;;;;5043588;28;20088;-71
2024/01/25 00:55:52;;;;;;;33.28;7.65;;;;;;;;;;5033220;28;20045;-71
2024/01/25 00:58:38;;;;;;;22.02;5.25;;;;;;;;;;5038675;28;20436;-70
2024/01/25 01:01:24;;;;;;;37.58;5.90;;;;;;;;;;5052808;28;20025;-71
2024/01/25 01:04:10;;;;;;;21.98;5.53;;;;;;;;;;5052190;28;20513;-71
2024/01/25 01:06:56;;;;;;;50.22;7.75;;;;;;;;;;5053018;28;20037;-71
2024/01/25 01:09:42;;;;;;;38.53;6.50;;;;;;;;;;5052052;28;20039;-71
2024/01/25 01:12:27;;;;;;;35.88;6.70;;;;;;;;;;5052994;28;20025;-71
2024/01/25 01:15:13;;;;;;;36.67;6.18;;;;;;;;;;5054050;28;20032;-71
2024/01/25 01:17:59;;;;;;;22.17;5.25;;;;;;;;;;5052602;28;20025;-71
2024/01/25 01:20:44;;;;;;;34.75;7.10;;;;;;;;;;5052119;28;20021;-71
2024/01/25 01:23:32;;;;;;;35.03;5.78;;;;;;;;;;5052631;28;20057;-71
2024/01/25 01:26:17;;;;;;;30.55;5.43;;;;;;;;;;5053011;28;20017;-71
2024/01/25 01:29:03;;;;;;;26.95;5.47;;;;;;;;;;5052660;28;20143;-71
2024/01/25 01:31:49;;;;;;;46.20;6.82;;;;;;;;;;5052467;28;20091;-71
2024/01/25 01:34:35;;;;;;;36.08;5.95;;;;;;;;;;5053262;28;20033;-71
2024/01/25 01:37:20;;;;;;;31.45;5.43;;;;;;;;;;5051959;28;20094;-71
2024/01/25 01:40:06;;;;;;;24.33;7.43;;;;;;;;;;5052209;28;20104;-72
2024/01/25 01:42:58;;;;;;;51.72;7.93;;;;;;;;;;5051691;28;20083;-71
2024/01/25 01:45:44;;;;;;;39.88;5.55;;;;;;;;;;5052238;28;20040;-71
2024/01/25 01:48:30;;;;;;;32.20;5.43;;;;;;;;;;5052926;28;20024;-71
2024/01/25 01:51:17;;;;;;;38.60;5.70;;;;;;;;;;5051975;28;20450;-71
2024/01/25 01:54:03;;;;;;;23.30;5.18;;;;;;;;;;5051595;28;20052;-71
2024/01/25 01:56:48;;;;;;;31.88;5.28;;;;;;;;;;5052410;28;20029;-71
2024/01/25 01:59:34;;;;;;;25.80;6.55;;;;;;;;;;5051456;28;20025;-71
2024/01/25 02:02:20;;;;;;;36.78;6.03;;;;;;;;;;5052228;28;20556;-71
2024/01/25 02:05:05;;;;;;;30.98;5.80;;;;;;;;;;5052574;28;20433;-71
2024/01/25 02:07:52;;;;;;;33.78;4.97;;;;;;;;;;5052148;28;20021;-71
2024/01/25 02:10:38;;;;;;;22.05;4.00;;;;;;;;;;5051648;28;20033;-71
2024/01/25 02:13:23;;;;;;;30.98;5.88;;;;;;;;;;5051373;28;20493;-71
2024/01/25 02:16:09;;;;;;;34.55;5.10;;;;;;;;;;5053557;28;20029;-71
2024/01/25 02:18:57;;;;;;;17.20;4.53;;;;;;;;;;5055179;28;20414;-71
2024/01/25 02:21:43;;;;;;;23.75;4.95;;;;;;;;;;5058807;28;20489;-71
2024/01/25 02:24:28;;;;;;;33.08;6.47;;;;;;;;;;5055977;28;20029;-71
2024/01/25 02:27:14;;;;;;;32.08;3.92;;;;;;;;;;5055215;28;20082;-71
2024/01/25 02:29:59;;;;;;;25.35;4.28;;;;;;;;;;5055867;28;20091;-71
2024/01/25 02:32:45;;;;;;;25.67;4.22;;;;;;;;;;5055766;28;20379;-71
2024/01/25 02:35:31;;;;;;;30.48;5.78;;;;;;;;;;5039044;28;20021;-71
2024/01/25 02:38:16;;;;;;;30.25;5.32;;;;;;;;;;5039025;28;20082;-70
2024/01/25 02:41:02;;;;;;;19.75;3.95;;;;;;;;;;5034912;28;20025;-71
2024/01/25 02:43:48;;;;;;;35.65;6.10;;;;;;;;;;5036431;28;20558;-71
2024/01/25 02:46:33;;;;;;;24.48;5.35;;;;;;;;;;5037001;28;20056;-71
2024/01/25 02:49:19;;;;;;;29.75;5.43;;;;;;;;;;5048180;28;20029;-70
2024/01/25 02:52:05;;;;;;;21.10;4.75;;;;;;;;;;5056280;28;20033;-71
2024/01/25 02:54:50;;;;;;;35.15;6.93;;;;;;;;;;5056644;28;20029;-71
2024/01/25 02:57:36;;;;;;;27.17;5.25;;;;;;;;;;5054647;28;20044;-71
2024/01/25 03:00:22;;;;;;;32.65;6.43;;;;;;;;;;5055185;28;20025;-71
2024/01/25 03:03:07;;;;;;;16.00;4.97;;;;;;;;;;5055361;28;20107;-71
2024/01/25 03:05:53;;;;;;;37.85;5.22;;;;;;;;;;5053726;28;20027;-71
2024/01/25 03:08:38;;;;;;;28.73;6.25;;;;;;;;;;5055170;28;20021;-71
2024/01/25 03:11:24;;;;;;;27.70;5.57;;;;;;;;;;5098969;22;20086;-71
2024/01/25 03:14:10;;;;;;;33.30;5.25;;;;;;;;;;5094127;28;20561;-71
2024/01/25 03:16:55;;;;;;;25.58;4.97;;;;;;;;;;5094642;28;20032;-71
2024/01/25 03:19:41;;;;;;;34.78;6.18;;;;;;;;;;5094153;28;20016;-71
2024/01/25 03:22:27;;;;;;;36.10;4.65;;;;;;;;;;5074389;28;20027;-71
2024/01/25 03:25:12;;;;;;;27.05;5.22;;;;;;;;;;5058061;28;20561;-71
2024/01/25 03:27:58;;;;;;;31.15;6.88;;;;;;;;;;5060121;28;20029;-71
2024/01/25 03:30:44;;;;;;;38.90;5.18;;;;;;;;;;5054033;28;20025;-71
2024/01/25 03:33:32;;;;;;;33.85;6.38;;;;;;;;;;5053418;28;20090;-71
2024/01/25 03:36:17;;;;;;;37.08;5.75;;;;;;;;;;5054579;28;20021;-71
2024/01/25 03:39:03;;;;;;;32.70;5.88;;;;;;;;;;5073652;28;20525;-71
2024/01/25 03:41:49;;;;;;;27.70;4.85;;;;;;;;;;5073351;28;20461;-71
2024/01/25 03:44:34;;;;;;;28.33;4.30;;;;;;;;;;5072996;28;20028;-71
2024/01/25 03:47:20;;;;;;;31.80;5.53;;;;;;;;;;5057040;28;20025;-71
2024/01/25 03:50:06;;;;;;;26.70;4.90;;;;;;;;;;5052966;28;20025;-71
2024/01/25 03:52:52;;;;;;;32.30;5.70;;;;;;;;;;5060407;28;20025;-71
2024/01/25 03:55:37;;;;;;;41.67;5.82;;;;;;;;;;5057297;28;20025;-71
2024/01/25 03:58:23;;;;;;;31.63;5.70;;;;;;;;;;5039269;28;20028;-71
2024/01/25 04:01:09;;;;;;;30.75;5.70;;;;;;;;;;5053031;28;20029;-71
2024/01/25 04:03:54;;;;;;;30.65;7.22;;;;;;;;;;5056275;28;20031;-71
2024/01/25 04:06:45;;;;;;;27.88;4.93;;;;;;;;;;5072658;28;20382;-71
2024/01/25 04:09:31;;;;;;;28.33;5.43;;;;;;;;;;5057433;28;20477;-71
2024/01/25 04:12:16;;;;;;;26.52;5.55;;;;;;;;;;5072899;28;20420;-71
2024/01/25 04:15:02;;;;;;;22.15;5.10;;;;;;;;;;5057647;28;20089;-71
2024/01/25 04:17:48;;;;;;;24.80;6.45;;;;;;;;;;5072748;28;20024;-71
2024/01/25 04:20:34;;;;;;;32.90;5.30;;;;;;;;;;5065388;28;20067;-71
2024/01/25 04:23:19;;;;;;;35.65;4.53;;;;;;;;;;5053420;28;20040;-71
2024/01/25 04:26:05;;;;;;;19.00;2.92;;;;;;;;;;5052886;28;20036;-71
2024/01/25 04:28:51;;;;;;;31.90;5.57;;;;;;;;;;5053807;28;20032;-71
2024/01/25 04:31:42;;;;;;;26.83;4.93;;;;;;;;;;5052584;28;20497;-71
2024/01/25 04:34:28;;;;;;;19.23;3.85;;;;;;;;;;5038881;28;20508;-71
2024/01/25 04:37:14;;;;;;;26.42;5.38;;;;;;;;;;5065477;28;20370;-71
2024/01/25 04:40:00;;;;;;;31.08;4.60;;;;;;;;;;5064398;28;20462;-71
2024/01/25 04:42:45;;;;;;;27.20;5.13;;;;;;;;;;5060021;28;20484;-71
2024/01/25 04:45:31;;;;;;;18.35;4.03;;;;;;;;;;5069755;28;20031;-71
2024/01/25 04:48:16;;;;;;;19.90;4.35;;;;;;;;;;5051964;28;20032;-71
2024/01/25 04:51:02;;;;;;;29.17;5.57;;;;;;;;;;5054063;28;20036;-71
2024/01/25 04:53:48;;;;;;;35.67;5.03;;;;;;;;;;5052010;28;20040;-71
2024/01/25 04:56:33;;;;;;;25.15;4.40;;;;;;;;;;5060935;28;20028;-71
2024/01/25 04:59:19;;;;;;;28.67;4.88;;;;;;;;;;5070604;28;20600;-71
2024/01/25 05:02:05;;;;;;;31.30;4.78;;;;;;;;;;5072054;28;20457;-71
2024/01/25 05:04:50;;;;;;;47.58;6.18;;;;;;;;;;5070555;28;20048;-71
2024/01/25 05:07:36;;;;;;;22.30;3.90;;;;;;;;;;5068407;28;20024;-71
2024/01/25 05:10:23;;;;;;;21.80;4.07;;;;;;;;;;5070877;28;20017;-71
2024/01/25 05:13:09;;;;;;;24.73;3.92;;;;;;;;;;5072197;28;20085;-72
2024/01/25 05:15:55;;;;;;;36.50;4.97;;;;;;;;;;5057380;28;20028;-71
2024/01/25 05:18:40;;;;;;;17.95;3.70;;;;;;;;;;5071917;28;20027;-71
2024/01/25 05:21:26;;;;;;;25.00;4.18;;;;;;;;;;5056921;28;20094;-71
2024/01/25 05:24:12;;;;;;;16.38;4.13;;;;;;;;;;5052676;28;20075;-71
2024/01/25 05:26:57;;;;;;;31.63;5.68;;;;;;;;;;5052390;28;20520;-71
2024/01/25 05:29:43;;;;;;;19.05;3.33;;;;;;;;;;5052015;28;20414;-71
2024/01/25 05:32:28;;;;;;;20.58;5.72;;;;;;;;;;5053100;28;20025;-71
2024/01/25 05:35:14;;;;;;;24.70;5.63;;;;;;;;;;5064343;28;20016;-71
2024/01/25 05:38:00;;;;;;;23.42;3.47;;;;;;;;;;5071149;28;20096;-71
2024/01/25 05:40:46;;;;;;;32.70;5.15;;;;;;;;;;5056788;28;20031;-71
2024/01/25 05:43:33;;;;;;;26.30;6.18;;;;;;;;;;5071225;28;20024;-71
2024/01/25 05:46:18;;;;;;;25.38;4.93;;;;;;;;;;5071523;28;20024;-71
2024/01/25 05:49:04;;;;;;;26.15;4.30;;;;;;;;;;5071218;28;20043;-71
2024/01/25 05:51:49;;;;;;;21.30;4.43;;;;;;;;;;5070699;28;20020;-71
2024/01/25 05:54:35;;;;;;;32.00;4.93;;;;;;;;;;5071065;28;20027;-71
2024/01/25 05:57:21;;;;;;;23.05;5.05;;;;;;;;;;5072578;28;20021;-71
2024/01/25 06:00:07;;;;;;;23.67;4.03;;;;;;;;;;5070725;28;20029;-71
2024/01/25 06:02:53;;;;;;;30.27;3.90;;;;;;;;;;5063289;28;20021;-71
2024/01/25 06:05:38;;;;;;;30.48;4.57;;;;;;;;;;5055184;28;20044;-72
2024/01/25 06:08:24;;;;;;;33.35;4.55;;;;;;;;;;5050661;28;20112;-71
2024/01/25 06:11:11;;;;;;;16.27;3.72;;;;;;;;;;5050244;28;20032;-71
2024/01/25 06:13:56;;;;;;;21.77;4.70;;;;;;;;;;5051409;28;20031;-71
2024/01/25 06:16:42;;;;;;;25.63;4.85;;;;;;;;;;5051340;28;20109;-71
2024/01/25 06:19:28;;;;;;;20.10;4.50;;;;;;;;;;5051303;28;20474;-71
2024/01/25 06:22:14;;;;;;;39.00;7.25;;;;;;;;;;5053891;28;20029;-72
2024/01/25 06:25:00;;;;;;;15.18;4.28;;;;;;;;;;5051264;28;20021;-71
2024/01/25 06:27:46;;;;;;;23.13;4.05;;;;;;;;;;5052399;28;20585;-71
2024/01/25 06:30:31;;;;;;;29.70;4.88;;;;;;;;;;5052307;28;20035;-71
2024/01/25 06:33:17;;;;;;;25.10;5.75;;;;;;;;;;5050736;28;20029;-71
2024/01/25 06:36:03;;;;;;;21.27;4.85;;;;;;;;;;5053773;28;20075;-71
2024/01/25 06:38:48;;;;;;;70.72;19.58;;;;;;;;;;5053776;28;20025;-71
2024/01/25 06:41:34;;;;;;;68.57;18.40;;;;;;;;;;5050967;28;20351;-71
2024/01/25 06:44:19;;;;;;;23.67;6.32;;;;;;;;;;5051861;28;20025;-72
2024/01/25 06:47:05;;;;;;;28.80;6.25;;;;;;;;;;5050843;28;20025;-71
2024/01/25 06:49:51;;;;;;;29.02;7.07;;;;;;;;;;5054498;28;20077;-71
2024/01/25 06:52:37;;;;;;;25.70;4.20;;;;;;;;;;5053405;28;20036;-72
2024/01/25 06:55:23;;;;;;;19.52;4.32;;;;;;;;;;5042585;28;20033;-71
2024/01/25 06:58:08;;;;;;;22.08;5.15;;;;;;;;;;5070857;28;20063;-71
2024/01/25 07:00:54;;;;;;;34.63;6.38;;;;;;;;;;5066270;28;20032;-72
2024/01/25 07:03:40;;;;;;;33.90;6.13;;;;;;;;;;5057514;28;20020;-71
2024/01/25 07:06:26;;;;;;;28.40;8.95;;;;;;;;;;5073638;28;20068;-71
2024/01/25 07:09:12;;;;;;;30.17;6.03;;;;;;;;;;5059689;28;20028;-71
2024/01/25 07:11:57;;;;;;;16.98;4.32;;;;;;;;;;5074446;28;20055;-71
2024/01/25 07:14:43;;;;;;;24.30;4.45;;;;;;;;;;5074616;28;20086;-71
2024/01/25 07:17:29;;;;;;;21.45;5.55;;;;;;;;;;5074497;28;20020;-71
2024/01/25 07:20:14;;;;;;;31.50;4.70;;;;;;;;;;5073764;28;20016;-71
2024/01/25 07:23:00;;;;;;;34.00;5.35;;;;;;;;;;5059652;28;20027;-71
2024/01/25 07:25:46;;;;;;;28.60;3.97;;;;;;;;;;5074619;28;20028;-72
2024/01/25 07:28:31;;;;;;;22.92;4.22;;;;;;;;;;5074574;28;20112;-71
2024/01/25 07:31:17;;;;;;;20.38;2.85;;;;;;;;;;5074001;28;20066;-72
2024/01/25 07:34:03;;;;;;;22.58;4.70;;;;;;;;;;5073795;28;20454;-71
2024/01/25 07:36:49;;;;;;;24.08;4.07;;;;;;;;;;5074143;28;20028;-71
2024/01/25 07:39:34;;;;;;;25.83;4.15;;;;;;;;;;5073824;28;20537;-71
2024/01/25 07:42:20;;;;;;;29.65;4.95;;;;;;;;;;5074006;28;20032;-71
2024/01/25 07:45:06;;;;;;;23.10;3.60;;;;;;;;;;5073436;28;20028;-71
2024/01/25 07:47:52;;;;;;;22.13;3.83;;;;;;;;;;5073894;28;20027;-70
2024/01/25 07:50:38;;;;;;;23.73;4.03;;;;;;;;;;5073794;28;20020;-70
2024/01/25 07:53:23;;;;;;;22.10;4.82;;;;;;;;;;5073235;28;20536;-70
2024/01/25 07:56:10;;;;;;;21.20;4.32;;;;;;;;;;5073673;28;20424;-70
2024/01/25 07:58:56;;;;;;;28.48;4.10;;;;;;;;;;5073474;28;20082;-71
2024/01/25 08:01:42;;;;;;;36.50;4.85;;;;;;;;;;5073983;28;20118;-71
2024/01/25 08:04:27;;;;;;;22.58;5.15;;;;;;;;;;5073805;28;20029;-70
2024/01/25 08:07:13;;;;;;;28.02;4.75;;;;;;;;;;5072128;28;20066;-71
2024/01/25 08:09:59;;;;;;;26.23;6.35;;;;;;;;;;5073627;28;20033;-72
2024/01/25 08:12:47;;;;;;;32.80;5.38;;;;;;;;;;5073831;28;20055;-71
2024/01/25 08:15:32;;;;;;;29.13;4.10;;;;;;;;;;5073161;28;20436;-71
2024/01/25 08:18:19;;;;;;;22.13;4.07;;;;;;;;;;5072602;28;20501;-73
2024/01/25 08:21:05;;;;;;;29.67;5.30;;;;;;;;;;5073423;28;20024;-72
2024/01/25 08:23:50;;;;;;;25.13;5.32;;;;;;;;;;5073788;28;20090;-72
2024/01/25 08:26:36;;;;;;;29.45;5.22;;;;;;;;;;5072617;28;20086;-72
2024/01/25 08:29:21;;;;;;;26.30;5.60;;;;;;;;;;5072640;28;20040;-72
2024/01/25 08:32:08;;;;;;;24.95;6.20;;;;;;;;;;5058336;28;20031;-73
2024/01/25 08:34:53;;;;;;;31.83;8.10;;;;;;;;;;5058165;28;20036;-73
2024/01/25 08:37:39;;;;;;;34.65;5.47;;;;;;;;;;5058062;28;20016;-73
2024/01/25 08:40:25;;;;;;;28.13;7.72;;;;;;;;;;5073018;28;20025;-73
2024/01/25 08:43:11;;;;;;;20.55;5.20;;;;;;;;;;5073009;28;20028;-72
2024/01/25 08:45:57;;;;;;;34.50;4.95;;;;;;;;;;5073262;28;20035;-72
2024/01/25 08:48:42;;;;;;;31.15;5.93;;;;;;;;;;5072702;28;20024;-72
2024/01/25 08:51:28;;;;;;;35.55;6.28;;;;;;;;;;5057675;28;20027;-71
2024/01/25 08:54:14;;;;;;;26.00;5.45;;;;;;;;;;5057022;28;20055;-72
2024/01/25 08:57:00;;;;;;;35.85;6.90;;;;;;;;;;5072749;28;20486;-71
2024/01/25 08:59:45;;;;;;;22.25;4.55;;;;;;;;;;5072479;28;20351;-71
2024/01/25 09:02:32;;;;;;;43.78;6.93;;;;;;;;;;5072047;28;20094;-71
2024/01/25 09:05:18;;;;;;;28.25;5.38;;;;;;;;;;5072612;28;20465;-71
2024/01/25 09:08:03;;;;;;;30.95;4.75;;;;;;;;;;5072477;28;20165;-71
2024/01/25 09:10:49;;;;;;;42.63;7.20;;;;;;;;;;5072478;28;20363;-71
2024/01/25 09:13:35;;;;;;;21.55;5.22;;;;;;;;;;5072758;28;20025;-71
2024/01/25 09:16:22;;;;;;;29.73;7.00;;;;;;;;;;5056637;28;20074;-71
2024/01/25 09:19:07;;;;;;;28.50;6.65;;;;;;;;;;5072078;28;20020;-71
2024/01/25 09:21:53;;;;;;;26.58;6.28;;;;;;;;;;5071775;28;20040;-72
2024/01/25 09:24:40;;;;;;;28.33;4.93;;;;;;;;;;5072253;28;20020;-73
2024/01/25 09:27:25;;;;;;;15.80;4.57;;;;;;;;;;5071322;28;20031;-71
2024/01/25 09:30:11;;;;;;;29.90;4.68;;;;;;;;;;5071779;28;20119;-71
2024/01/25 09:32:57;;;;;;;27.85;5.63;;;;;;;;;;5072783;28;20107;-73
2024/01/25 09:35:46;;;;;;;24.02;5.90;;;;;;;;;;5071733;28;20025;-72
2024/01/25 09:38:32;;;;;;;13.27;4.45;;;;;;;;;;5072237;28;20024;-72
2024/01/25 09:41:17;;;;;;;36.85;5.28;;;;;;;;;;5071884;28;20025;-72
2024/01/25 09:44:03;;;;;;;27.60;4.57;;;;;;;;;;5056970;28;20497;-72
2024/01/25 09:46:49;;;;;;;23.40;3.95;;;;;;;;;;5056340;28;20028;-72
2024/01/25 09:49:35;;;;;;;28.42;6.40;;;;;;;;;;5056941;28;20024;-72
2024/01/25 09:52:25;;;;;;;23.40;4.70;;;;;;;;;;5071593;28;20137;-72
2024/01/25 09:55:13;;;;;;;;;;;;;;;;;;5057432;28;20028;-72
2024/01/25 09:57:59;;;;;;;31.08;4.03;;;;;;;;;;5057166;28;20324;-73
2024/01/25 10:00:44;;;;;;;30.55;4.88;;;;;;;;;;5056397;28;20032;-72
2024/01/25 10:03:30;;;;;;;18.95;3.15;;;;;;;;;;5071667;28;20461;-73
2024/01/25 10:06:16;;;;;;;40.05;4.60;;;;;;;;;;5071604;28;20115;-72
2024/01/25 10:09:04;;;;;;;19.95;3.25;;;;;;;;;;5070480;28;20027;-72
2024/01/25 10:11:50;;;;;;;29.98;5.15;;;;;;;;;;5071150;28;20165;-72
2024/01/25 10:14:35;;;;;;;27.38;4.28;;;;;;;;;;5071182;28;20074;-72
2024/01/25 10:17:21;;;;;;;21.40;4.07;;;;;;;;;;5070824;28;20021;-72
2024/01/25 10:20:10;;;;;;;21.80;3.72;;;;;;;;;;5056683;28;20345;-72
2024/01/25 10:22:56;;;;;;;25.30;3.95;;;;;;;;;;5071893;28;20036;-72
2024/01/25 10:25:41;;;;;;;41.08;6.75;;;;;;;;;;5070726;28;20028;-72
2024/01/25 10:28:28;;;;;;;31.13;4.47;;;;;;;;;;5071300;28;20115;-72
2024/01/25 10:31:14;;;;;;;16.67;3.05;;;;;;;;;;5056902;28;20051;-72
2024/01/25 10:34:00;;;;;;;27.58;3.90;;;;;;;;;;5071863;28;20141;-72
2024/01/25 10:36:46;;;;;;;29.52;5.85;;;;;;;;;;5057494;28;20021;-72
2024/01/25 10:39:32;;;;;;;19.90;3.95;;;;;;;;;;5074745;28;20012;-72
2024/01/25 10:42:18;;;;;;;28.67;4.35;;;;;;;;;;5073907;28;20031;-73
2024/01/25 10:45:04;;;;;;;19.92;5.20;;;;;;;;;;5075413;28;20021;-72
2024/01/25 10:47:50;;;;;;;24.27;4.80;;;;;;;;;;5061174;28;20389;-72
2024/01/25 10:50:36;;;;;;;22.38;4.00;;;;;;;;;;5060010;28;20027;-72
2024/01/25 10:53:22;;;;;;;26.10;4.50;;;;;;;;;;5074340;28;20028;-72
2024/01/25 10:56:08;;;;;;;25.58;3.88;;;;;;;;;;5075229;28;20435;-72
2024/01/25 10:58:53;;;;;;;26.83;4.45;;;;;;;;;;5074918;28;20021;-72
2024/01/25 11:01:44;;;;;;;18.77;4.70;;;;;;;;;;5059114;28;20021;-72
2024/01/25 11:04:30;;;;;;;18.40;3.72;;;;;;;;;;5060214;28;20496;-72
2024/01/25 11:07:15;;;;;;;24.73;3.80;;;;;;;;;;5075209;28;20028;-72
2024/01/25 11:10:01;;;;;;;19.50;4.47;;;;;;;;;;5073670;28;20017;-72
2024/01/25 11:12:57;;;;;;;28.02;4.28;;;;;;;;;;5061365;28;20036;-72
2024/01/25 11:15:43;;;;;;;27.13;3.85;;;;;;;;;;5060729;28;20024;-72
2024/01/25 11:18:29;;;;;;;26.73;3.72;;;;;;;;;;5074309;28;20020;-72
2024/01/25 11:21:41;;;;;;;26.55;4.00;;;;;;;;;;5073842;28;20021;-72
2024/01/25 11:24:26;;;;;;;23.17;4.22;;;;;;;;;;5059490;28;20028;-72
2024/01/25 11:27:12;;;;;;;24.30;4.55;;;;;;;;;;5074093;28;20027;-72
2024/01/25 11:29:57;;;;;;;19.88;3.55;;;;;;;;;;5073341;28;20028;-72
2024/01/25 11:32:44;;;;;;;26.52;4.45;;;;;;;;;;5053340;28;20103;-72
2024/01/25 11:35:29;;;;;;;22.52;6.03;;;;;;;;;;5060650;28;20117;-72
2024/01/25 11:38:15;;;;;;;26.05;4.50;;;;;;;;;;5042430;28;20024;-72
2024/01/25 11:41:00;;;;;;;20.85;4.03;;;;;;;;;;5065736;28;20531;-73
2024/01/25 11:43:49;;;;;;;23.73;5.22;;;;;;;;;;5052828;28;20028;-72
2024/01/25 11:46:35;;;;;;;25.40;4.40;;;;;;;;;;5058473;28;20016;-72
2024/01/25 11:49:23;;;;;;;22.58;4.07;;;;;;;;;;5059659;28;20025;-72
2024/01/25 11:52:09;;;;;;;24.70;3.58;;;;;;;;;;5040160;28;20021;-72
2024/01/25 11:54:55;;;;;;;26.45;4.43;;;;;;;;;;5057352;28;20013;-72
2024/01/25 11:57:41;;;;;;;32.58;4.15;;;;;;;;;;5068348;28;20108;-72
2024/01/25 12:00:26;;;;;;;19.33;4.95;;;;;;;;;;5062828;28;20048;-72
2024/01/25 12:03:12;;;;;;;16.08;3.25;;;;;;;;;;5057008;28;20048;-72
2024/01/25 12:05:59;;;;;;;14.70;3.00;;;;;;;;;;5053524;28;20104;-72
2024/01/25 12:08:46;;;;;;;24.35;4.40;;;;;;;;;;5060170;28;20478;-72
2024/01/25 12:11:37;;;;;;;31.38;3.88;;;;;;;;;;5065669;28;20049;-73
2024/01/25 12:14:28;;;;;;;16.23;2.97;;;;;;;;;;5054867;28;20025;-72
2024/01/25 12:17:13;;;;;;;;;;;;;;;;;;5064911;28;20051;-72
2024/01/25 12:19:59;;;;;;;16.65;3.92;;;;;;;;;;5073151;28;19916;-72
2024/01/25 12:22:48;;;;;;;23.88;2.85;;;;;;;;;;5067839;28;20028;-72
2024/01/25 12:25:39;;;;;;;16.20;3.05;;;;;;;;;;5039063;28;20039;-73
2024/01/25 12:28:27;;;;;;;16.33;3.53;;;;;;;;;;5057456;28;20418;-72
2024/01/25 12:31:12;;;;;;;19.30;3.70;;;;;;;;;;5056194;28;20024;-72
2024/01/25 12:34:00;;;;;;;25.27;3.92;;;;;;;;;;5067382;28;20028;-72
2024/01/25 12:36:46;;;;;;;23.50;3.38;;;;;;;;;;5064068;28;20047;-72
2024/01/25 12:39:32;;;;;;;25.90;4.43;;;;;;;;;;5056184;28;20024;-73
2024/01/25 12:42:18;;;;;;;27.30;5.28;;;;;;;;;;5052739;28;20494;-73
2024/01/25 12:45:04;;;;;;;25.50;3.70;;;;;;;;;;5052968;28;20110;-72
2024/01/25 12:47:50;;;;;;;16.33;4.30;;;;;;;;;;5038170;28;20048;-73
2024/01/25 12:50:36;;;;;;;27.95;5.03;;;;;;;;;;5048974;28;20060;-73
2024/01/25 12:53:22;;;;;;;19.77;3.75;;;;;;;;;;5063204;28;20024;-73
2024/01/25 12:56:08;;;;;;;17.17;3.72;;;;;;;;;;5061386;28;20025;-72
2024/01/25 12:58:53;;;;;;;27.38;4.03;;;;;;;;;;5052574;28;20033;-72
2024/01/25 13:01:39;;;;;;;17.23;4.40;;;;;;;;;;5055252;28;20024;-72
2024/01/25 13:04:25;;;;;;;28.25;5.63;;;;;;;;;;5054393;28;20025;-72
2024/01/25 13:07:10;;;;;;;20.80;5.63;;;;;;;;;;5064119;28;20142;-72
2024/01/25 13:09:56;;;;;;;20.17;4.05;;;;;;;;;;5062268;28;20032;-72
2024/01/25 13:12:41;;;;;;;26.17;5.80;;;;;;;;;;5068185;28;20100;-72
2024/01/25 13:15:27;;;;;;;19.80;4.95;;;;;;;;;;5062001;28;20028;-72
2024/01/25 13:18:13;;;;;;;22.42;3.55;;;;;;;;;;5038312;28;20016;-72
2024/01/25 13:20:58;;;;;;;38.30;5.70;;;;;;;;;;5064351;28;20028;-72
2024/01/25 13:23:44;;;;;;;31.00;4.13;;;;;;;;;;5070666;28;20020;-72
2024/01/25 13:26:30;;;;;;;22.05;3.80;;;;;;;;;;5071296;28;20044;-72
2024/01/25 13:29:15;;;;;;;35.35;4.10;;;;;;;;;;5057374;28;20112;-72
2024/01/25 13:32:01;;;;;;;22.20;3.35;;;;;;;;;;5070798;28;20029;-72
2024/01/25 13:34:48;;;;;;;18.23;4.90;;;;;;;;;;5072050;28;20048;-73
2024/01/25 13:37:33;;;;;;;21.33;3.35;;;;;;;;;;5056070;28;20467;-73
2024/01/25 13:40:19;;;;;;;22.17;3.08;;;;;;;;;;5054452;28;20020;-72
2024/01/25 13:43:05;;;;;;;30.45;4.75;;;;;;;;;;5064116;28;20074;-72
2024/01/25 13:45:50;;;;;;;22.55;4.35;;;;;;;;;;5070239;28;20021;-72
2024/01/25 13:48:36;;;;;;;20.27;3.65;;;;;;;;;;5067227;28;20074;-72
2024/01/25 13:51:21;;;;;;;24.40;4.00;;;;;;;;;;5038784;28;20112;-73
2024/01/25 13:54:07;;;;;;;22.75;4.20;;;;;;;;;;5060159;28;20414;-72
2024/01/25 13:56:55;;;;;;;29.23;4.57;;;;;;;;;;5038273;28;20025;-72
2024/01/25 13:59:40;;;;;;;30.80;6.03;;;;;;;;;;5057752;28;20020;-72
2024/01/25 14:02:26;;;;;;;18.63;4.47;;;;;;;;;;5051448;28;20029;-72
2024/01/25 14:05:12;;;;;;;25.98;5.20;;;;;;;;;;5053534;28;20020;-72
2024/01/25 14:07:59;;;;;;;31.15;5.72;;;;;;;;;;5057856;28;20417;-73
2024/01/25 14:10:45;;;;;;;35.80;4.47;;;;;;;;;;5065580;28;20027;-72
2024/01/25 14:13:30;;;;;;;17.67;4.57;;;;;;;;;;5061821;28;20021;-72
2024/01/25 14:16:17;;;;;;;22.92;4.97;;;;;;;;;;5075237;28;20066;-72
2024/01/25 14:19:03;;;;;;;20.42;3.65;;;;;;;;;;5055843;28;20386;-72
2024/01/25 14:21:50;;;;;;;230.57;69.55;;;;;;;;;;5041577;28;20028;-72
2024/01/25 14:24:36;;;;;;;30.65;5.22;;;;;;;;;;5057407;28;20516;-72
2024/01/25 14:27:22;;;;;;;35.30;8.05;;;;;;;;;;5060326;28;20056;-73
2024/01/25 14:30:08;;;;;;;30.80;6.30;;;;;;;;;;5040329;28;20025;-72
2024/01/25 14:32:55;;;;;;;33.95;11.23;;;;;;;;;;5058635;28;20489;-72
2024/01/25 14:36:46;;;;;;;28.25;8.23;;;;;;;;;;5085480;28;20350;-72
2024/01/25 14:39:32;;;;;;;28.63;5.75;;;;;;;;;;5080964;28;20032;-72
2024/01/25 14:42:18;;;;;;;28.95;9.38;;;;;;;;;;5089221;28;20020;-73
2024/01/25 14:45:04;;;;;;;27.40;5.22;;;;;;;;;;5086471;28;20016;-72
2024/01/25 14:47:49;;;;;;;30.67;7.95;;;;;;;;;;5081456;28;20025;-72
2024/01/25 14:50:35;;;;;;;35.67;9.98;;;;;;;;;;5067730;28;20028;-72
2024/01/25 14:53:21;;;;;;;18.33;4.57;;;;;;;;;;5078785;28;20024;-72
2024/01/25 14:56:06;;;;;;;32.72;5.40;;;;;;;;;;5074132;28;20028;-72
2024/01/25 14:58:52;;;;;;;26.88;4.82;;;;;;;;;;5082620;28;20040;-73
2024/01/25 15:01:37;;;;;;;27.45;4.40;;;;;;;;;;5067093;28;20025;-72
2024/01/25 15:04:24;;;;;;;56.88;11.63;;;;;;;;;;5078415;28;20032;-72
2024/01/25 15:07:10;;;;;;;57.60;16.10;;;;;;;;;;5068417;28;20024;-72
2024/01/25 15:09:56;;;;;;;40.15;9.43;;;;;;;;;;5065351;28;20027;-72
2024/01/25 15:12:42;;;;;;;43.15;10.07;;;;;;;;;;5101050;22;20052;-73
2024/01/25 15:15:28;;;;;;;29.13;5.40;;;;;;;;;;5075563;28;20024;-72
2024/01/25 15:18:13;;;;;;;40.60;11.50;;;;;;;;;;5090178;28;20035;-72
2024/01/25 15:20:59;;;;;;;38.05;5.88;;;;;;;;;;5089091;28;20044;-72
2024/01/25 15:23:45;;;;;;;26.38;4.30;;;;;;;;;;5089625;28;20473;-72
2024/01/25 15:26:30;;;;;;;33.40;4.80;;;;;;;;;;5089751;28;20419;-72
2024/01/25 15:29:16;;;;;;;23.90;4.32;;;;;;;;;;5089127;28;20024;-72
2024/01/25 15:32:02;;;;;;;28.10;6.50;;;;;;;;;;5074043;28;20482;-72
2024/01/25 15:34:47;;;;;;;24.63;8.63;;;;;;;;;;5087720;28;20409;-73
2024/01/25 15:37:33;;;;;;;29.73;9.05;;;;;;;;;;5089659;28;20108;-73
2024/01/25 15:40:19;;;;;;;43.55;17.02;;;;;;;;;;5088168;28;20050;-72
2024/01/25 15:43:05;;;;;;;52.88;17.58;;;;;;;;;;5069848;22;20449;-72
2024/01/25 15:45:53;;;;;;;47.13;18.83;;;;;;;;;;5068186;28;20462;-72
2024/01/25 15:48:39;;;;;;;44.10;14.73;;;;;;;;;;5087326;28;20073;-72
2024/01/25 15:51:25;;;;;;;32.97;11.07;;;;;;;;;;5104771;28;20103;-72
2024/01/25 15:54:10;;;;;;;25.08;6.97;;;;;;;;;;5080199;28;20016;-72
2024/01/25 15:56:59;;;;;;;32.05;9.20;;;;;;;;;;5090742;28;20103;-72
2024/01/25 15:59:47;;;;;;;32.90;12.10;;;;;;;;;;5078415;28;20114;-72
2024/01/25 16:02:32;;;;;;;45.95;9.23;;;;;;;;;;5074516;28;20082;-72
2024/01/25 16:05:18;;;;;;;51.55;14.85;;;;;;;;;;5077036;28;20460;-72
2024/01/25 16:08:04;;;;;;;39.63;14.43;;;;;;;;;;5076085;28;20024;-72
2024/01/25 16:10:49;;;;;;;48.15;13.05;;;;;;;;;;5059532;28;20029;-72
2024/01/25 16:13:35;;;;;;;59.13;20.33;;;;;;;;;;5060479;28;20056;-72
2024/01/25 16:16:21;;;;;;;54.67;19.15;;;;;;;;;;5075362;28;20024;-72
2024/01/25 16:19:06;;;;;;;35.78;8.35;;;;;;;;;;5078783;28;20029;-72
2024/01/25 16:21:52;;;;;;;26.08;7.72;;;;;;;;;;5074253;28;20119;-72